ADDS METAR Data INFO
IDs: Format: Raw Decoded Include TAF

Data at: 1527 UTC 18 Jun 2018

KUGN 181455Z 24009KT 10SM CLR 29/23 A2995 RMK AO2 SLP128 T02890233 51004
KUGN 181355Z COR 26007KT 10SM FEW060 SCT120 28/23 A2995 RMK AO2 SLP128 T02830233
KUGN 181255Z 24006KT 10SM BKN120 28/23 A2995 RMK AO2 SLP126 T02830233
KUGN 181155Z 23010KT 10SM BKN100 26/23 A2994 RMK AO2 SLP124 T02610228 10272 20250 53007
KUGN 181055Z 23010KT 10SM BKN100 26/22 A2993 RMK AO2 SLP119 T02560222
KUGN 180955Z AUTO 23009KT 10SM CLR 25/22 A2992 RMK AO2 SLP117 T02500222
KUGN 180855Z AUTO 22010KT 10SM CLR 26/22 A2992 RMK AO2 SLP115 T02560222 56006
KUGN 180755Z AUTO 22010KT 10SM CLR 27/22 A2992 RMK AO2 SLP116 T02670222
KUGN 180655Z AUTO 22010KT 10SM CLR 27/22 A2993 RMK AO2 SLP116 T02670222
KUGN 180555Z AUTO 21010KT 10SM CLR 27/23 A2994 RMK AO2 SLP121 T02670228 10306 20267 403390222 58002
KUGN 180455Z AUTO 22009KT 10SM CLR 27/23 A2995 RMK AO2 SLP125 T02670233
KUGN 180355Z AUTO 21008KT 10SM CLR 27/23 A2995 RMK AO2 SLP127 T02720233
KUGN 180255Z AUTO 20008KT 10SM CLR 27/23 A2995 RMK AO2 SLP124 T02720228 53010
KUGN 180155Z AUTO 22007KT 10SM CLR 28/23 A2994 RMK AO2 SLP122 T02780228
KUGN 180055Z 21013KT 10SM CLR 29/23 A2992 RMK AO2 SLP115 LAST T02940228
KUGN 172355Z 23013KT 10SM CLR 31/23 A2992 RMK AO2 SLP115 T03060228 10339 20306 58010
KUGN 172255Z 21012KT 10SM CLR 32/23 A2992 RMK AO2 SLP116 T03220233
KUGN 172155Z 24009KT 10SM CLR 32/22 A2995 RMK AO2 SLP125 T03170217
KUGN 172055Z 24006G16KT 10SM SCT055 33/22 A2995 RMK AO2 SLP126 T03280217 58010
KUGN 171955Z 22013KT 10SM FEW050 SCT060 33/23 A2996 RMK AO2 SLP129 T03330233
KUGN 171855Z COR 22010KT 10SM SCT049 33/23 A2997 RMK AO2 SLP134 T03280233
KUGN 171755Z 23007G16KT 10SM SCT030 33/24 A2998 RMK AO2 SLP136 T03280239 10328 20261 58005
KUGN 171655Z 23009KT 10SM CLR 32/23 A2998 RMK AO2 SLP137 T03170228
KUGN 171555Z 22012KT 10SM CLR 31/23 A2999 RMK AO2 SLP141 T03110233
KUGN 171455Z 22010KT 10SM CLR 31/23 A2999 RMK AO2 SLP142 T03060233 51008
KUGN 171355Z 22011G14KT 10SM CLR 29/23 A2999 RMK AO2 SLP141 T02890228
KUGN 171255Z 22008KT 10SM CLR 28/23 A2999 RMK AO2 SLP140 T02780233
KUGN 171155Z 21006KT 10SM CLR 26/23 A2997 RMK AO2 SLP134 T02610228 10261 20222 50004
KUGN 171055Z 22005KT 10SM CLR 24/22 A2997 RMK AO2 SLP137 T02390222
KUGN 170955Z AUTO 23006KT 10SM CLR 24/22 A2998 RMK AO2 SLP138 T02390222
KUGN 170855Z AUTO 20006KT 10SM CLR 24/22 A2995 RMK AO2 SLP129 T02390222 51005
KUGN 170755Z AUTO 22006KT 10SM CLR 24/22 A2995 RMK AO2 SLP130 T02440222
KUGN 170655Z AUTO 23005KT 10SM CLR 24/22 A2996 RMK AO2 SLP131 T02390222
KUGN 170555Z AUTO 00000KT 10SM CLR 24/22 A2994 RMK AO2 SLP126 T02390222 10272 20222 402940189 55000
KUGN 170455Z AUTO 20009KT 10SM CLR 27/22 A2991 RMK AO2 SLP117 T02670222
KUGN 170355Z AUTO 19012KT 10SM CLR 26/22 A2992 RMK AO2 SLP121 T02610217